createdAt,value
2022-10-19T00:00:16.812Z,100.00
2022-10-19T00:02:47.254Z,100.00
2022-10-19T00:05:17.832Z,100.00
2022-10-19T00:07:48.239Z,100.00
2022-10-19T00:10:18.807Z,100.00
2022-10-19T00:15:24.973Z,100.00
2022-10-19T00:17:55.377Z,100.00
2022-10-19T00:20:26.226Z,100.00
2022-10-19T00:22:56.551Z,100.00
2022-10-19T00:25:27.014Z,100.00
2022-10-19T00:27:57.428Z,100.00
2022-10-19T00:30:27.869Z,100.00
2022-10-19T00:32:58.182Z,100.00
2022-10-19T00:35:28.541Z,100.00
2022-10-19T00:37:58.857Z,100.00
2022-10-19T00:40:29.435Z,100.00
2022-10-19T00:42:59.938Z,100.00
2022-10-19T00:45:30.616Z,100.00
2022-10-19T00:48:01.109Z,100.00
2022-10-19T00:50:32.180Z,100.00
2022-10-19T00:53:03.352Z,100.00
2022-10-19T00:55:34.020Z,100.00
2022-10-19T00:58:05.479Z,100.00
2022-10-19T01:00:36.619Z,100.00
2022-10-19T01:03:08.077Z,100.00
2022-10-19T01:05:39.394Z,100.00
2022-10-19T01:08:09.970Z,100.00
2022-10-19T01:10:48.277Z,100.00
2022-10-19T01:13:33.656Z,100.00
2022-10-19T01:16:11.928Z,100.00
2022-10-19T01:18:50.577Z,100.00
2022-10-19T01:21:30.579Z,100.00
2022-10-19T01:24:25.806Z,100.00
2022-10-19T01:27:42.883Z,100.00
2022-10-19T01:30:18.068Z,100.00
2022-10-19T01:33:08.046Z,100.00
2022-10-19T01:35:46.318Z,100.00
2022-10-19T01:38:27.790Z,100.00
2022-10-19T01:40:58.574Z,100.00
2022-10-19T01:43:44.184Z,100.00
2022-10-19T01:46:19.445Z,100.00
2022-10-19T01:48:57.677Z,100.00
2022-10-19T01:51:33.496Z,100.00
2022-10-19T01:54:09.680Z,100.00
2022-10-19T01:56:42.216Z,100.00
2022-10-19T01:59:15.190Z,100.00
2022-10-19T02:01:48.918Z,100.00
2022-10-19T02:04:22.644Z,100.00
2022-10-19T02:06:55.366Z,100.00
2022-10-19T02:09:25.856Z,100.00
2022-10-19T02:12:00.758Z,100.00
2022-10-19T02:14:34.008Z,100.00
2022-10-19T02:17:09.530Z,100.00
2022-10-19T02:19:41.448Z,100.00
2022-10-19T02:22:13.151Z,100.00
2022-10-19T02:24:43.936Z,100.00
2022-10-19T02:27:15.128Z,100.00
2022-10-19T02:29:45.906Z,100.00
2022-10-19T02:32:16.663Z,100.00
2022-10-19T02:34:47.165Z,100.00
2022-10-19T02:37:20.887Z,100.00
2022-10-19T02:39:54.028Z,100.00
2022-10-19T02:42:29.890Z,100.00
2022-10-19T02:45:02.858Z,100.00
2022-10-19T02:47:36.725Z,100.00
2022-10-19T02:50:10.615Z,100.00
2022-10-19T02:52:42.274Z,100.00
2022-10-19T02:55:12.934Z,100.00
2022-10-19T02:57:43.309Z,100.00
2022-10-19T03:00:14.833Z,100.00
2022-10-19T03:02:45.590Z,100.00
2022-10-19T03:05:16.067Z,100.00
2022-10-19T03:07:46.834Z,100.00
2022-10-19T03:10:17.363Z,100.00
2022-10-19T03:12:47.777Z,100.00
2022-10-19T03:15:20.029Z,100.00
2022-10-19T03:17:53.256Z,100.00
2022-10-19T03:20:23.776Z,100.00
2022-10-19T03:25:29.317Z,100.00
2022-10-19T03:27:59.723Z,100.00
2022-10-19T03:30:30.381Z,100.00
2022-10-19T03:33:00.820Z,100.00
2022-10-19T03:35:31.412Z,100.00
2022-10-19T03:38:01.779Z,100.00
2022-10-19T03:40:32.219Z,100.00
2022-10-19T03:43:02.615Z,100.00
2022-10-19T03:45:33.124Z,100.00
2022-10-19T03:48:03.472Z,100.00
2022-10-19T03:50:34.058Z,100.00
2022-10-19T03:53:04.408Z,100.00
2022-10-19T03:55:34.736Z,100.00
2022-10-19T03:58:05.165Z,100.00
2022-10-19T04:00:35.569Z,100.00
2022-10-19T04:03:06.087Z,100.00
2022-10-19T04:05:36.684Z,100.00
2022-10-19T04:08:07.504Z,100.00
2022-10-19T04:10:37.934Z,100.00
2022-10-19T04:13:08.243Z,100.00
2022-10-19T04:15:39.109Z,100.00
2022-10-19T04:18:09.537Z,100.00
2022-10-19T04:20:42.775Z,100.00
2022-10-19T04:23:13.247Z,100.00
2022-10-19T04:25:43.634Z,100.00
2022-10-19T04:28:14.103Z,100.00
2022-10-19T04:30:44.447Z,100.00
2022-10-19T04:33:14.794Z,100.00
2022-10-19T04:35:45.230Z,100.00
2022-10-19T04:38:15.699Z,100.00
2022-10-19T04:40:46.170Z,100.00
2022-10-19T04:43:16.529Z,100.00
2022-10-19T04:45:47.004Z,100.00
2022-10-19T04:48:17.457Z,100.00
2022-10-19T04:50:47.882Z,100.00
2022-10-19T04:55:55.315Z,100.00
2022-10-19T04:58:25.996Z,100.00
2022-10-19T05:00:56.552Z,100.00
2022-10-19T05:03:26.952Z,100.00
2022-10-19T05:05:59.760Z,100.00
2022-10-19T05:08:30.247Z,100.00
2022-10-19T05:11:05.682Z,100.00
2022-10-19T05:13:36.523Z,100.00
2022-10-19T05:16:09.065Z,100.00
2022-10-19T05:18:39.498Z,100.00
2022-10-19T05:21:12.357Z,100.00
2022-10-19T05:23:43.545Z,100.00
2022-10-19T05:26:21.009Z,100.00
2022-10-19T05:28:56.477Z,100.00
2022-10-19T05:31:29.169Z,100.00
2022-10-19T05:34:00.602Z,100.00
2022-10-19T05:36:34.619Z,100.00
2022-10-19T05:39:07.654Z,100.00
2022-10-19T05:41:37.967Z,100.00
2022-10-19T05:44:08.722Z,100.00
2022-10-19T05:46:39.136Z,100.00
2022-10-19T05:49:09.468Z,100.00
2022-10-19T05:51:40.366Z,100.00
2022-10-19T05:54:11.030Z,100.00
2022-10-19T05:56:42.417Z,100.00
2022-10-19T05:59:13.303Z,100.00
2022-10-19T06:01:43.660Z,100.00
2022-10-19T06:06:50.864Z,100.00
2022-10-19T06:09:21.320Z,100.00
2022-10-19T06:11:51.637Z,100.00
2022-10-19T06:14:22.028Z,100.00
2022-10-19T06:16:52.365Z,100.00
2022-10-19T06:19:22.675Z,100.00
2022-10-19T06:21:52.985Z,100.00
2022-10-19T06:24:23.351Z,100.00
2022-10-19T06:26:53.711Z,100.00
2022-10-19T06:29:27.101Z,100.00
2022-10-19T06:31:59.730Z,100.00
2022-10-19T06:34:30.096Z,100.00
2022-10-19T06:37:00.634Z,100.00
2022-10-19T06:39:30.919Z,100.00
2022-10-19T06:42:01.349Z,100.00
2022-10-19T06:44:31.858Z,100.00
2022-10-19T06:47:02.342Z,100.00
2022-10-19T06:49:35.886Z,100.00
2022-10-19T06:52:07.931Z,100.00
2022-10-19T06:54:38.332Z,100.00
2022-10-19T06:57:09.072Z,100.00
2022-10-19T06:59:39.614Z,100.00
2022-10-19T07:02:11.555Z,100.00
2022-10-19T07:04:42.131Z,100.00
2022-10-19T07:07:12.891Z,100.00
2022-10-19T07:09:43.272Z,100.00
2022-10-19T07:12:13.696Z,100.00
2022-10-19T07:14:44.140Z,100.00
2022-10-19T07:17:14.936Z,100.00
2022-10-19T07:19:45.331Z,100.00
2022-10-19T07:22:21.161Z,100.00
2022-10-19T07:24:54.996Z,100.00
2022-10-19T07:27:26.149Z,100.00
2022-10-19T07:29:56.545Z,100.00
2022-10-19T07:32:26.889Z,100.00
2022-10-19T07:34:57.309Z,100.00
2022-10-19T07:37:27.701Z,100.00
2022-10-19T07:39:57.974Z,100.00
2022-10-19T07:42:30.354Z,100.00
2022-10-19T07:45:00.904Z,100.00
2022-10-19T07:47:31.531Z,100.00
2022-10-19T07:50:02.435Z,100.00
2022-10-19T07:52:36.017Z,100.00
2022-10-19T07:55:08.577Z,100.00
2022-10-19T07:57:41.541Z,100.00
2022-10-19T08:00:15.780Z,100.00
2022-10-19T08:03:00.105Z,100.00
2022-10-19T08:05:37.396Z,100.00
2022-10-19T08:08:08.179Z,100.00
2022-10-19T08:10:38.536Z,100.00
2022-10-19T08:13:08.818Z,100.00
2022-10-19T08:15:39.235Z,100.00
2022-10-19T08:18:09.445Z,100.00
2022-10-19T08:20:41.440Z,100.00
2022-10-19T08:23:11.924Z,100.00
2022-10-19T08:25:42.390Z,100.00
2022-10-19T08:28:12.675Z,100.00
2022-10-19T08:30:43.105Z,100.00
2022-10-19T08:33:15.192Z,100.00
2022-10-19T08:35:45.603Z,100.00
2022-10-19T08:38:16.074Z,100.00
2022-10-19T08:40:47.845Z,100.00
2022-10-19T08:43:27.051Z,100.00
2022-10-19T08:46:03.890Z,100.00
2022-10-19T08:48:39.290Z,100.00
2022-10-19T08:51:15.246Z,100.00
2022-10-19T08:53:54.463Z,100.00
2022-10-19T08:56:50.923Z,100.00
2022-10-19T08:59:32.701Z,100.00
2022-10-19T09:02:11.611Z,100.00
2022-10-19T09:04:47.171Z,100.00
2022-10-19T09:07:28.261Z,100.00
2022-10-19T09:10:02.480Z,100.00
2022-10-19T09:12:41.124Z,100.00
2022-10-19T09:15:16.156Z,100.00
2022-10-19T09:17:46.715Z,100.00
2022-10-19T09:20:20.912Z,100.00
2022-10-19T09:23:00.392Z,100.00
2022-10-19T09:25:34.721Z,100.00
2022-10-19T09:28:18.128Z,100.00
2022-10-19T09:30:51.440Z,100.00
2022-10-19T09:33:29.459Z,100.00
2022-10-19T09:36:01.730Z,100.00
2022-10-19T09:38:32.453Z,100.00
2022-10-19T09:41:14.746Z,100.00
2022-10-19T09:43:53.376Z,100.00
2022-10-19T09:49:38.779Z,100.00
2022-10-19T09:52:23.324Z,100.00
2022-10-19T09:55:02.891Z,100.00
2022-10-19T09:57:33.739Z,100.00
2022-10-19T10:00:04.945Z,100.00
2022-10-19T10:02:37.598Z,100.00
2022-10-19T10:05:14.735Z,100.00
2022-10-19T10:07:45.658Z,100.00
2022-10-19T10:10:28.190Z,100.00
2022-10-19T10:13:04.093Z,100.00
2022-10-19T10:15:52.126Z,100.00
2022-10-19T10:18:24.741Z,100.00
2022-10-19T10:21:06.989Z,100.00
2022-10-19T10:23:38.202Z,100.00
2022-10-19T10:26:19.767Z,100.00
2022-10-19T10:28:52.288Z,100.00
2022-10-19T10:31:32.994Z,100.00
2022-10-19T10:34:16.317Z,100.00
2022-10-19T10:36:56.383Z,100.00
2022-10-19T10:39:28.781Z,100.00
2022-10-19T10:42:08.800Z,100.00
2022-10-19T10:44:39.568Z,100.00
2022-10-19T10:47:17.684Z,100.00
2022-10-19T10:49:57.443Z,100.00
2022-10-19T10:52:30.725Z,100.00
2022-10-19T10:55:03.633Z,100.00
2022-10-19T10:57:38.989Z,100.00
2022-10-19T11:00:16.343Z,99.32
2022-10-19T11:02:53.197Z,98.89
2022-10-19T11:05:27.553Z,97.63
2022-10-19T11:08:09.125Z,96.38
2022-10-19T11:10:44.698Z,95.39
2022-10-19T11:13:22.542Z,95.02
2022-10-19T11:15:57.120Z,95.65
2022-10-19T11:18:31.514Z,94.55
2022-10-19T11:21:08.895Z,93.88
2022-10-19T11:23:52.536Z,93.20
2022-10-19T11:26:37.573Z,92.23
2022-10-19T11:29:22.298Z,92.31
2022-10-19T11:31:55.715Z,90.72
2022-10-19T11:34:47.470Z,91.20
2022-10-19T11:37:27.293Z,89.40
2022-10-19T11:40:13.431Z,89.49
2022-10-19T11:42:55.888Z,89.46
2022-10-19T11:45:37.932Z,90.03
2022-10-19T11:48:31.388Z,88.67
2022-10-19T11:51:20.783Z,89.19
2022-10-19T11:54:09.961Z,89.66
2022-10-19T11:57:02.842Z,89.12
2022-10-19T11:59:47.434Z,87.01
2022-10-19T12:02:43.817Z,85.56
2022-10-19T12:05:20.351Z,84.29
2022-10-19T12:08:04.988Z,82.04
2022-10-19T12:10:44.165Z,82.97
2022-10-19T12:13:19.785Z,81.31
2022-10-19T12:15:53.959Z,78.87
2022-10-19T12:18:30.685Z,79.89
2022-10-19T12:21:03.675Z,80.72
2022-10-19T12:23:37.567Z,82.46
2022-10-19T12:26:12.244Z,81.51
2022-10-19T12:28:48.665Z,80.76
2022-10-19T12:31:20.076Z,78.00
2022-10-19T12:33:58.245Z,73.75
2022-10-19T12:36:41.927Z,73.00
2022-10-19T12:39:22.766Z,72.62
2022-10-19T12:41:58.143Z,73.49
2022-10-19T12:44:53.811Z,71.81
2022-10-19T12:47:27.694Z,68.92
2022-10-19T12:49:58.920Z,68.34
2022-10-19T12:52:48.331Z,67.70
2022-10-19T12:55:34.970Z,67.70
2022-10-19T12:58:18.215Z,67.72
2022-10-19T13:01:01.012Z,68.69
2022-10-19T13:03:34.982Z,68.30
2022-10-19T13:06:12.413Z,68.91
2022-10-19T13:08:48.659Z,67.67
2022-10-19T13:11:19.337Z,68.63
2022-10-19T13:14:00.056Z,67.52
2022-10-19T13:17:06.447Z,66.58
2022-10-19T13:19:37.104Z,67.13
2022-10-19T13:22:28.447Z,67.97
2022-10-19T13:25:23.508Z,68.73
2022-10-19T13:27:55.737Z,66.22
2022-10-19T13:31:08.333Z,64.74
2022-10-19T13:33:50.792Z,63.79
2022-10-19T13:36:22.917Z,63.84
2022-10-19T13:39:13.035Z,62.67
2022-10-19T13:41:53.261Z,62.40
2022-10-19T13:44:36.552Z,63.65
2022-10-19T13:47:41.035Z,64.03
2022-10-19T13:50:25.465Z,65.09
2022-10-19T13:53:16.286Z,63.71
2022-10-19T13:56:10.365Z,61.41
2022-10-19T13:59:04.858Z,61.10
2022-10-19T14:01:49.150Z,59.15
2022-10-19T14:04:31.701Z,58.15
2022-10-19T14:07:07.133Z,57.75
2022-10-19T14:10:05.405Z,58.54
2022-10-19T14:12:41.425Z,57.99
2022-10-19T14:15:24.222Z,58.35
2022-10-19T14:17:54.813Z,57.16
2022-10-19T14:20:32.389Z,57.16
2022-10-19T14:23:20.943Z,57.50
2022-10-19T14:25:57.770Z,57.02
2022-10-19T14:28:29.128Z,56.88
2022-10-19T14:31:02.461Z,57.46
2022-10-19T14:33:36.387Z,58.29
2022-10-19T14:36:08.780Z,58.93
2022-10-19T14:38:43.397Z,60.10
2022-10-19T14:41:30.092Z,61.77
2022-10-19T14:44:02.864Z,63.23
2022-10-19T14:46:34.869Z,64.21
2022-10-19T14:49:07.133Z,65.18
2022-10-19T14:51:43.868Z,66.70
2022-10-19T14:54:29.678Z,68.04
2022-10-19T14:57:03.002Z,68.82
2022-10-19T14:59:38.489Z,70.07
2022-10-19T15:02:19.820Z,70.70
2022-10-19T15:04:49.423Z,71.97
2022-10-19T15:07:24.083Z,72.91
2022-10-19T15:09:58.041Z,73.93
2022-10-19T15:12:36.678Z,74.59
2022-10-19T15:15:17.530Z,75.51
2022-10-19T15:17:54.310Z,76.35
2022-10-19T15:20:31.388Z,76.97
2022-10-19T15:23:23.888Z,77.95
2022-10-19T15:26:09.684Z,79.03
2022-10-19T15:28:47.697Z,79.96
2022-10-19T15:31:25.631Z,80.96
2022-10-19T15:33:59.639Z,81.67
2022-10-19T15:36:33.176Z,82.44
2022-10-19T15:39:18.073Z,82.90
2022-10-19T15:41:55.386Z,83.38
2022-10-19T15:44:41.917Z,83.88
2022-10-19T15:47:24.923Z,84.26
2022-10-19T15:49:58.667Z,84.64
2022-10-19T15:52:30.704Z,84.91
2022-10-19T15:55:02.294Z,85.27
2022-10-19T15:57:35.866Z,85.83
2022-10-19T16:00:13.870Z,86.52
2022-10-19T16:02:44.260Z,86.83
2022-10-19T16:05:14.573Z,87.66
2022-10-19T16:07:45.217Z,87.74
2022-10-19T16:10:20.182Z,88.64
2022-10-19T16:12:50.649Z,88.82
2022-10-19T16:15:23.549Z,89.19
2022-10-19T16:17:56.553Z,89.54
2022-10-19T16:20:31.536Z,89.86
2022-10-19T16:23:01.950Z,90.56
2022-10-19T16:25:32.404Z,91.28
2022-10-19T16:28:02.794Z,91.42
2022-10-19T16:30:33.336Z,92.30
2022-10-19T16:33:03.696Z,93.03
2022-10-19T16:35:34.009Z,93.20
2022-10-19T16:38:04.622Z,94.15
2022-10-19T16:40:35.060Z,94.26
2022-10-19T16:43:05.759Z,95.08
2022-10-19T16:45:36.595Z,95.76
2022-10-19T16:48:07.537Z,96.14
2022-10-19T16:53:46.289Z,96.72
2022-10-19T16:56:16.821Z,97.06
2022-10-19T16:58:47.386Z,96.68
2022-10-19T17:01:19.966Z,97.27
2022-10-19T17:03:51.024Z,97.11
2022-10-19T17:06:22.046Z,97.88
2022-10-19T17:09:23.603Z,98.04
2022-10-19T17:11:42.510Z,98.33
2022-10-19T17:14:14.211Z,98.29
2022-10-19T17:16:44.641Z,98.85
2022-10-19T17:19:15.218Z,98.92
2022-10-19T17:21:45.493Z,99.03
2022-10-19T17:24:22.027Z,98.67
2022-10-19T17:26:53.955Z,98.78
2022-10-19T17:29:24.700Z,99.22
2022-10-19T17:31:55.194Z,99.33
2022-10-19T17:34:25.662Z,99.46
2022-10-19T17:36:56.020Z,99.82
2022-10-19T17:39:29.105Z,99.80
2022-10-19T17:42:03.251Z,100.00
2022-10-19T17:44:33.548Z,99.90
2022-10-19T17:47:03.967Z,100.00
2022-10-19T17:49:34.423Z,100.00
2022-10-19T17:52:04.809Z,100.00
2022-10-19T17:54:43.577Z,100.00
2022-10-19T17:57:25.297Z,100.00
2022-10-19T17:59:56.992Z,100.00
2022-10-19T18:02:27.537Z,100.00
2022-10-19T18:04:58.194Z,100.00
2022-10-19T18:07:28.612Z,100.00
2022-10-19T18:09:59.216Z,100.00
2022-10-19T18:12:30.017Z,100.00
2022-10-19T18:15:00.407Z,100.00
2022-10-19T18:17:30.967Z,100.00
2022-10-19T18:20:01.209Z,100.00
2022-10-19T18:22:31.686Z,100.00
2022-10-19T18:25:02.228Z,100.00
2022-10-19T18:27:32.938Z,100.00
2022-10-19T18:30:03.946Z,100.00
2022-10-19T18:32:36.012Z,100.00
2022-10-19T18:35:07.223Z,100.00
2022-10-19T18:37:37.949Z,100.00
2022-10-19T18:40:11.962Z,100.00
2022-10-19T18:42:43.340Z,100.00
2022-10-19T18:45:14.158Z,100.00
2022-10-19T18:47:44.625Z,100.00
2022-10-19T18:50:17.423Z,100.00
2022-10-19T18:52:47.828Z,100.00
2022-10-19T18:55:18.359Z,100.00
2022-10-19T18:57:48.707Z,100.00
2022-10-19T19:00:19.415Z,100.00
2022-10-19T19:02:57.544Z,100.00
2022-10-19T19:05:28.681Z,100.00
2022-10-19T19:07:59.074Z,100.00
2022-10-19T19:10:29.917Z,100.00
2022-10-19T19:13:00.790Z,100.00
2022-10-19T19:15:33.163Z,100.00
2022-10-19T19:18:06.384Z,100.00
2022-10-19T19:20:40.967Z,100.00
2022-10-19T19:23:11.696Z,100.00
2022-10-19T19:25:44.848Z,100.00
2022-10-19T19:28:15.337Z,100.00
2022-10-19T19:30:46.770Z,100.00
2022-10-19T19:33:17.372Z,100.00
2022-10-19T19:35:49.170Z,100.00
2022-10-19T19:38:19.802Z,100.00
2022-10-19T19:40:53.390Z,100.00
2022-10-19T19:43:23.985Z,100.00
2022-10-19T19:46:03.258Z,100.00
2022-10-19T19:48:36.817Z,100.00
2022-10-19T19:51:08.438Z,100.00
2022-10-19T19:53:39.326Z,100.00
2022-10-19T19:56:12.595Z,100.00
2022-10-19T19:58:44.255Z,100.00
2022-10-19T20:01:16.843Z,100.00
2022-10-19T20:03:48.274Z,100.00
2022-10-19T20:06:22.056Z,100.00
2022-10-19T20:08:56.292Z,100.00
2022-10-19T20:11:28.481Z,100.00
2022-10-19T20:13:59.488Z,100.00
2022-10-19T20:16:32.119Z,100.00
2022-10-19T20:19:06.602Z,100.00
2022-10-19T20:21:37.200Z,100.00
2022-10-19T20:24:08.366Z,100.00
2022-10-19T20:26:39.363Z,100.00
2022-10-19T20:29:09.930Z,100.00
2022-10-19T20:31:41.262Z,100.00
2022-10-19T20:34:11.698Z,100.00
2022-10-19T20:36:42.349Z,100.00
2022-10-19T20:39:12.957Z,100.00
2022-10-19T20:41:43.555Z,100.00
2022-10-19T20:44:13.853Z,100.00
2022-10-19T20:46:44.323Z,100.00
2022-10-19T20:49:15.394Z,100.00
2022-10-19T20:51:47.601Z,100.00
2022-10-19T20:54:17.877Z,100.00
2022-10-19T20:56:49.147Z,100.00
2022-10-19T20:59:21.132Z,100.00
2022-10-19T21:01:54.500Z,100.00
2022-10-19T21:04:26.024Z,100.00
2022-10-19T21:06:57.266Z,100.00
2022-10-19T21:09:27.524Z,100.00
2022-10-19T21:11:58.117Z,100.00
2022-10-19T21:14:30.568Z,100.00
2022-10-19T21:17:01.705Z,100.00
2022-10-19T21:19:32.311Z,100.00
2022-10-19T21:22:03.344Z,100.00
2022-10-19T21:24:35.905Z,100.00
2022-10-19T21:27:08.956Z,100.00
2022-10-19T21:29:39.695Z,100.00
2022-10-19T21:32:10.180Z,100.00
2022-10-19T21:34:40.686Z,100.00
2022-10-19T21:37:10.946Z,100.00
2022-10-19T21:39:41.304Z,100.00
2022-10-19T21:42:11.618Z,100.00
2022-10-19T21:44:41.980Z,100.00
2022-10-19T21:47:12.320Z,100.00
2022-10-19T21:49:42.738Z,100.00
2022-10-19T21:52:16.077Z,100.00
2022-10-19T21:54:46.573Z,100.00
2022-10-19T21:57:16.846Z,100.00
2022-10-19T21:59:47.119Z,100.00
2022-10-19T22:02:17.481Z,100.00
2022-10-19T22:04:47.825Z,100.00
2022-10-19T22:07:18.138Z,100.00
2022-10-19T22:09:48.445Z,100.00
2022-10-19T22:12:18.829Z,100.00
2022-10-19T22:14:49.190Z,100.00
2022-10-19T22:17:19.463Z,100.00
2022-10-19T22:19:49.914Z,100.00
2022-10-19T22:22:20.302Z,100.00
2022-10-19T22:24:50.771Z,100.00
2022-10-19T22:27:21.209Z,100.00
2022-10-19T22:29:53.299Z,100.00
2022-10-19T22:32:23.600Z,100.00
2022-10-19T22:34:53.911Z,100.00
2022-10-19T22:37:24.416Z,100.00
2022-10-19T22:39:54.797Z,100.00
2022-10-19T22:42:25.432Z,100.00
2022-10-19T22:44:55.890Z,100.00
2022-10-19T22:47:26.334Z,100.00
2022-10-19T22:49:56.713Z,100.00
2022-10-19T22:52:27.130Z,100.00
2022-10-19T22:54:57.525Z,100.00
2022-10-19T22:57:27.761Z,100.00
2022-10-19T22:59:58.194Z,100.00
2022-10-19T23:02:29.974Z,100.00
2022-10-19T23:05:00.240Z,100.00
2022-10-19T23:07:30.894Z,100.00
2022-10-19T23:10:01.200Z,100.00
2022-10-19T23:12:31.633Z,100.00
2022-10-19T23:15:02.066Z,100.00
2022-10-19T23:17:32.533Z,100.00
2022-10-19T23:20:03.155Z,100.00
2022-10-19T23:22:33.506Z,100.00
2022-10-19T23:25:03.987Z,100.00
2022-10-19T23:27:34.639Z,100.00
2022-10-19T23:30:06.543Z,100.00
2022-10-19T23:32:35.405Z,100.00
2022-10-19T23:35:06.485Z,100.00
2022-10-19T23:37:37.847Z,100.00
2022-10-19T23:40:10.469Z,100.00
2022-10-19T23:42:41.314Z,100.00
2022-10-19T23:45:15.213Z,100.00
2022-10-19T23:47:45.484Z,100.00
2022-10-19T23:50:15.857Z,100.00
2022-10-19T23:55:21.848Z,100.00
2022-10-19T23:57:52.114Z,100.00
